Great Falls (GTF/KGTF)

Map

Information

Location
Great Falls , MT
Local Time
22:31 / 10:31 pm
GMT Time
05:31 / 5:31 am
Gates
Unassigned
No FAA reported delays
METAR KGTF 260453Z 24018KT 10SM CLR M03/M13 A2963 RMK AO2 PK WND 24026/0428 SLP078 T10281128
TAF KGTF 252356Z 2600/2624 25015G25KT P6SM FEW070 SCT180 WS020/28030KT FM260300 22011KT P6SM SCT060 BKN120 WS015/27030KT FM260900 22008KT P6SM VCSH SCT040 BKN070 WS015/27025KT PROB30 2611/2615 5SM -SHSN BR BKN035 FM261500 24008KT 6SM -SN SCT016 OVC025 PROB30 2615/2620 4SM -SHSN BKN015 FM262000 36010KT 4SM -SN BR OVC015
  • No charts available